sensor_id;sensor_type;location;lat;lon;timestamp;P1;durP1;ratioP1;P2;durP2;ratioP2
69627;SDS011;56850;51.984;5.088;2023-04-06T00:01:03;13.70;;;8.88;;
69627;SDS011;56850;51.984;5.088;2023-04-06T00:03:30;13.63;;;8.35;;
69627;SDS011;56850;51.984;5.088;2023-04-06T00:05:57;13.45;;;9.00;;
69627;SDS011;56850;51.984;5.088;2023-04-06T00:08:24;12.30;;;8.10;;
69627;SDS011;56850;51.984;5.088;2023-04-06T00:10:52;18.70;;;8.77;;
69627;SDS011;56850;51.984;5.088;2023-04-06T00:13:19;12.25;;;8.35;;
69627;SDS011;56850;51.984;5.088;2023-04-06T00:15:46;12.88;;;8.15;;
69627;SDS011;56850;51.984;5.088;2023-04-06T00:18:13;10.45;;;7.00;;
69627;SDS011;56850;51.984;5.088;2023-04-06T00:20:40;12.77;;;8.13;;
69627;SDS011;56850;51.984;5.088;2023-04-06T00:23:07;13.18;;;8.27;;
69627;SDS011;56850;51.984;5.088;2023-04-06T00:25:34;14.30;;;7.97;;
69627;SDS011;56850;51.984;5.088;2023-04-06T00:28:01;12.93;;;8.18;;
69627;SDS011;56850;51.984;5.088;2023-04-06T00:30:29;13.43;;;8.32;;
69627;SDS011;56850;51.984;5.088;2023-04-06T00:32:57;12.17;;;8.27;;
69627;SDS011;56850;51.984;5.088;2023-04-06T00:35:24;14.05;;;8.23;;
69627;SDS011;56850;51.984;5.088;2023-04-06T00:37:51;13.65;;;7.97;;
69627;SDS011;56850;51.984;5.088;2023-04-06T00:40:18;14.30;;;8.82;;
69627;SDS011;56850;51.984;5.088;2023-04-06T00:42:45;13.27;;;8.73;;
69627;SDS011;56850;51.984;5.088;2023-04-06T00:45:12;11.83;;;8.20;;
69627;SDS011;56850;51.984;5.088;2023-04-06T00:47:39;14.13;;;8.48;;
69627;SDS011;56850;51.984;5.088;2023-04-06T00:50:07;15.07;;;9.38;;
69627;SDS011;56850;51.984;5.088;2023-04-06T00:52:34;15.70;;;9.40;;
69627;SDS011;56850;51.984;5.088;2023-04-06T00:55:03;13.77;;;9.18;;
69627;SDS011;56850;51.984;5.088;2023-04-06T00:57:32;14.53;;;8.77;;
69627;SDS011;56850;51.984;5.088;2023-04-06T00:59:59;14.70;;;8.10;;
69627;SDS011;56850;51.984;5.088;2023-04-06T01:02:26;13.02;;;8.15;;
69627;SDS011;56850;51.984;5.088;2023-04-06T01:04:53;12.95;;;8.45;;
69627;SDS011;56850;51.984;5.088;2023-04-06T01:07:34;13.50;;;8.70;;
69627;SDS011;56850;51.984;5.088;2023-04-06T01:10:09;14.27;;;8.20;;
69627;SDS011;56850;51.984;5.088;2023-04-06T01:12:36;13.27;;;8.55;;
69627;SDS011;56850;51.984;5.088;2023-04-06T01:15:11;13.23;;;9.10;;
69627;SDS011;56850;51.984;5.088;2023-04-06T01:17:43;14.95;;;8.85;;
69627;SDS011;56850;51.984;5.088;2023-04-06T01:20:13;13.52;;;9.10;;
69627;SDS011;56850;51.984;5.088;2023-04-06T01:22:41;14.50;;;8.07;;
69627;SDS011;56850;51.984;5.088;2023-04-06T01:25:10;13.85;;;8.60;;
69627;SDS011;56850;51.984;5.088;2023-04-06T01:27:44;12.75;;;8.30;;
69627;SDS011;56850;51.984;5.088;2023-04-06T01:30:11;16.00;;;8.93;;
69627;SDS011;56850;51.984;5.088;2023-04-06T01:32:52;14.32;;;8.48;;
69627;SDS011;56850;51.984;5.088;2023-04-06T01:35:51;13.67;;;7.87;;
69627;SDS011;56850;51.984;5.088;2023-04-06T01:38:19;16.58;;;8.20;;
69627;SDS011;56850;51.984;5.088;2023-04-06T01:40:47;13.90;;;8.68;;
69627;SDS011;56850;51.984;5.088;2023-04-06T01:43:16;12.95;;;8.50;;
69627;SDS011;56850;51.984;5.088;2023-04-06T01:46:00;11.65;;;8.43;;
69627;SDS011;56850;51.984;5.088;2023-04-06T01:48:33;12.70;;;8.37;;
69627;SDS011;56850;51.984;5.088;2023-04-06T01:51:07;12.15;;;8.13;;
69627;SDS011;56850;51.984;5.088;2023-04-06T01:53:43;14.85;;;8.00;;
69627;SDS011;56850;51.984;5.088;2023-04-06T01:56:10;11.50;;;7.68;;
69627;SDS011;56850;51.984;5.088;2023-04-06T01:58:43;13.32;;;7.78;;
69627;SDS011;56850;51.984;5.088;2023-04-06T02:01:12;13.90;;;8.67;;
69627;SDS011;56850;51.984;5.088;2023-04-06T02:03:50;11.07;;;7.47;;
69627;SDS011;56850;51.984;5.088;2023-04-06T02:06:17;11.48;;;8.07;;
69627;SDS011;56850;51.984;5.088;2023-04-06T02:08:45;17.08;;;9.35;;
69627;SDS011;56850;51.984;5.088;2023-04-06T02:11:12;12.80;;;8.77;;
69627;SDS011;56850;51.984;5.088;2023-04-06T02:13:44;15.23;;;8.60;;
69627;SDS011;56850;51.984;5.088;2023-04-06T02:16:11;12.50;;;7.90;;
69627;SDS011;56850;51.984;5.088;2023-04-06T02:18:38;17.75;;;8.60;;
69627;SDS011;56850;51.984;5.088;2023-04-06T02:21:05;15.45;;;9.40;;
69627;SDS011;56850;51.984;5.088;2023-04-06T02:23:32;12.40;;;9.10;;
69627;SDS011;56850;51.984;5.088;2023-04-06T02:25:59;13.00;;;8.50;;
69627;SDS011;56850;51.984;5.088;2023-04-06T02:28:26;19.60;;;9.35;;
69627;SDS011;56850;51.984;5.088;2023-04-06T02:30:53;15.32;;;9.27;;
69627;SDS011;56850;51.984;5.088;2023-04-06T02:33:24;14.63;;;9.40;;
69627;SDS011;56850;51.984;5.088;2023-04-06T02:35:51;14.98;;;9.02;;
69627;SDS011;56850;51.984;5.088;2023-04-06T02:38:18;12.97;;;8.77;;
69627;SDS011;56850;51.984;5.088;2023-04-06T02:40:45;13.55;;;8.82;;
69627;SDS011;56850;51.984;5.088;2023-04-06T02:43:23;16.00;;;9.68;;
69627;SDS011;56850;51.984;5.088;2023-04-06T02:45:58;13.85;;;9.10;;
69627;SDS011;56850;51.984;5.088;2023-04-06T02:48:25;15.20;;;10.05;;
69627;SDS011;56850;51.984;5.088;2023-04-06T02:50:52;14.17;;;8.70;;
69627;SDS011;56850;51.984;5.088;2023-04-06T02:53:19;18.70;;;9.15;;
69627;SDS011;56850;51.984;5.088;2023-04-06T02:55:46;13.85;;;8.98;;
69627;SDS011;56850;51.984;5.088;2023-04-06T02:58:13;15.60;;;9.60;;
69627;SDS011;56850;51.984;5.088;2023-04-06T03:00:47;14.18;;;9.38;;
69627;SDS011;56850;51.984;5.088;2023-04-06T03:03:14;12.03;;;8.13;;
69627;SDS011;56850;51.984;5.088;2023-04-06T03:05:43;14.82;;;8.68;;
69627;SDS011;56850;51.984;5.088;2023-04-06T03:08:10;17.58;;;10.18;;
69627;SDS011;56850;51.984;5.088;2023-04-06T03:10:41;14.88;;;8.43;;
69627;SDS011;56850;51.984;5.088;2023-04-06T03:13:07;15.32;;;9.48;;
69627;SDS011;56850;51.984;5.088;2023-04-06T03:15:47;17.00;;;9.80;;
69627;SDS011;56850;51.984;5.088;2023-04-06T03:18:20;17.63;;;9.45;;
69627;SDS011;56850;51.984;5.088;2023-04-06T03:20:50;15.95;;;9.55;;
69627;SDS011;56850;51.984;5.088;2023-04-06T03:23:18;17.33;;;10.43;;
69627;SDS011;56850;51.984;5.088;2023-04-06T03:25:51;14.45;;;10.07;;
69627;SDS011;56850;51.984;5.088;2023-04-06T03:28:19;16.50;;;10.23;;
69627;SDS011;56850;51.984;5.088;2023-04-06T03:30:53;16.95;;;10.43;;
69627;SDS011;56850;51.984;5.088;2023-04-06T03:33:36;18.58;;;10.93;;
69627;SDS011;56850;51.984;5.088;2023-04-06T03:36:03;18.42;;;10.32;;
69627;SDS011;56850;51.984;5.088;2023-04-06T03:38:35;19.05;;;11.30;;
69627;SDS011;56850;51.984;5.088;2023-04-06T03:41:09;19.63;;;10.77;;
69627;SDS011;56850;51.984;5.088;2023-04-06T03:43:37;16.77;;;10.30;;
69627;SDS011;56850;51.984;5.088;2023-04-06T03:46:04;16.83;;;10.82;;
69627;SDS011;56850;51.984;5.088;2023-04-06T03:48:31;19.30;;;10.68;;
69627;SDS011;56850;51.984;5.088;2023-04-06T03:51:02;20.75;;;11.40;;
69627;SDS011;56850;51.984;5.088;2023-04-06T03:53:29;17.03;;;10.37;;
69627;SDS011;56850;51.984;5.088;2023-04-06T03:55:56;16.70;;;10.50;;
69627;SDS011;56850;51.984;5.088;2023-04-06T03:58:23;18.17;;;10.43;;
69627;SDS011;56850;51.984;5.088;2023-04-06T04:00:51;16.90;;;11.02;;
69627;SDS011;56850;51.984;5.088;2023-04-06T04:03:18;18.17;;;11.30;;
69627;SDS011;56850;51.984;5.088;2023-04-06T04:05:45;17.23;;;9.80;;
69627;SDS011;56850;51.984;5.088;2023-04-06T04:08:12;20.80;;;11.40;;
69627;SDS011;56850;51.984;5.088;2023-04-06T04:10:40;19.52;;;11.02;;
69627;SDS011;56850;51.984;5.088;2023-04-06T04:13:06;16.85;;;10.18;;
69627;SDS011;56850;51.984;5.088;2023-04-06T04:15:34;22.40;;;11.18;;
69627;SDS011;56850;51.984;5.088;2023-04-06T04:18:00;19.50;;;11.37;;
69627;SDS011;56850;51.984;5.088;2023-04-06T04:20:27;19.75;;;11.32;;
69627;SDS011;56850;51.984;5.088;2023-04-06T04:22:54;17.40;;;11.07;;
69627;SDS011;56850;51.984;5.088;2023-04-06T04:25:22;19.60;;;11.40;;
69627;SDS011;56850;51.984;5.088;2023-04-06T04:27:49;22.42;;;12.07;;
69627;SDS011;56850;51.984;5.088;2023-04-06T04:30:18;21.73;;;10.77;;
69627;SDS011;56850;51.984;5.088;2023-04-06T04:32:46;17.10;;;10.75;;
69627;SDS011;56850;51.984;5.088;2023-04-06T04:35:16;20.10;;;11.82;;
69627;SDS011;56850;51.984;5.088;2023-04-06T04:37:43;18.90;;;11.75;;
69627;SDS011;56850;51.984;5.088;2023-04-06T04:40:11;20.13;;;11.25;;
69627;SDS011;56850;51.984;5.088;2023-04-06T04:42:49;19.13;;;11.43;;
69627;SDS011;56850;51.984;5.088;2023-04-06T04:45:32;18.45;;;11.90;;
69627;SDS011;56850;51.984;5.088;2023-04-06T04:48:10;20.75;;;12.00;;
69627;SDS011;56850;51.984;5.088;2023-04-06T04:50:48;18.65;;;11.40;;
69627;SDS011;56850;51.984;5.088;2023-04-06T04:53:17;18.65;;;11.10;;
69627;SDS011;56850;51.984;5.088;2023-04-06T04:55:44;16.90;;;10.40;;
69627;SDS011;56850;51.984;5.088;2023-04-06T04:58:13;19.60;;;10.48;;
69627;SDS011;56850;51.984;5.088;2023-04-06T05:00:54;20.63;;;12.05;;
69627;SDS011;56850;51.984;5.088;2023-04-06T05:03:22;18.58;;;10.82;;
69627;SDS011;56850;51.984;5.088;2023-04-06T05:05:57;19.15;;;11.35;;
69627;SDS011;56850;51.984;5.088;2023-04-06T05:08:28;17.97;;;10.03;;
69627;SDS011;56850;51.984;5.088;2023-04-06T05:10:56;21.15;;;12.57;;
69627;SDS011;56850;51.984;5.088;2023-04-06T05:13:23;20.10;;;11.27;;
69627;SDS011;56850;51.984;5.088;2023-04-06T05:15:52;20.30;;;11.95;;
69627;SDS011;56850;51.984;5.088;2023-04-06T05:18:26;20.35;;;11.90;;
69627;SDS011;56850;51.984;5.088;2023-04-06T05:20:55;17.20;;;11.20;;
69627;SDS011;56850;51.984;5.088;2023-04-06T05:23:29;17.63;;;11.13;;
69627;SDS011;56850;51.984;5.088;2023-04-06T05:26:00;20.10;;;12.15;;
69627;SDS011;56850;51.984;5.088;2023-04-06T05:28:27;21.48;;;11.88;;
69627;SDS011;56850;51.984;5.088;2023-04-06T05:30:53;19.98;;;12.27;;
69627;SDS011;56850;51.984;5.088;2023-04-06T05:33:21;20.47;;;12.03;;
69627;SDS011;56850;51.984;5.088;2023-04-06T05:36:02;18.42;;;11.32;;
69627;SDS011;56850;51.984;5.088;2023-04-06T05:38:30;18.73;;;11.95;;
69627;SDS011;56850;51.984;5.088;2023-04-06T05:41:03;21.52;;;12.05;;
69627;SDS011;56850;51.984;5.088;2023-04-06T05:43:31;20.55;;;12.38;;
69627;SDS011;56850;51.984;5.088;2023-04-06T05:45:59;19.57;;;12.23;;
69627;SDS011;56850;51.984;5.088;2023-04-06T05:48:26;22.05;;;11.80;;
69627;SDS011;56850;51.984;5.088;2023-04-06T05:50:54;19.38;;;12.15;;
69627;SDS011;56850;51.984;5.088;2023-04-06T05:53:28;16.60;;;10.27;;
69627;SDS011;56850;51.984;5.088;2023-04-06T05:56:01;20.42;;;11.23;;
69627;SDS011;56850;51.984;5.088;2023-04-06T05:58:29;20.47;;;10.57;;
69627;SDS011;56850;51.984;5.088;2023-04-06T06:00:58;19.08;;;12.02;;
69627;SDS011;56850;51.984;5.088;2023-04-06T06:03:36;15.38;;;9.95;;
69627;SDS011;56850;51.984;5.088;2023-04-06T06:06:05;19.33;;;11.48;;
69627;SDS011;56850;51.984;5.088;2023-04-06T06:08:52;19.17;;;12.73;;
69627;SDS011;56850;51.984;5.088;2023-04-06T06:11:19;21.23;;;12.00;;
69627;SDS011;56850;51.984;5.088;2023-04-06T06:13:47;20.17;;;11.73;;
69627;SDS011;56850;51.984;5.088;2023-04-06T06:16:17;20.77;;;11.82;;
69627;SDS011;56850;51.984;5.088;2023-04-06T06:18:46;23.20;;;12.70;;
69627;SDS011;56850;51.984;5.088;2023-04-06T06:21:13;21.85;;;12.35;;
69627;SDS011;56850;51.984;5.088;2023-04-06T06:23:41;18.57;;;12.87;;
69627;SDS011;56850;51.984;5.088;2023-04-06T06:26:13;21.75;;;13.00;;
69627;SDS011;56850;51.984;5.088;2023-04-06T06:28:40;22.20;;;13.70;;
69627;SDS011;56850;51.984;5.088;2023-04-06T06:31:09;20.63;;;12.95;;
69627;SDS011;56850;51.984;5.088;2023-04-06T06:33:36;21.92;;;14.15;;
69627;SDS011;56850;51.984;5.088;2023-04-06T06:36:03;21.83;;;13.10;;
69627;SDS011;56850;51.984;5.088;2023-04-06T06:38:31;25.27;;;13.40;;
69627;SDS011;56850;51.984;5.088;2023-04-06T06:40:58;21.23;;;14.18;;
69627;SDS011;56850;51.984;5.088;2023-04-06T06:43:28;21.23;;;13.30;;
69627;SDS011;56850;51.984;5.088;2023-04-06T06:45:59;21.45;;;12.00;;
69627;SDS011;56850;51.984;5.088;2023-04-06T06:48:26;20.17;;;12.20;;
69627;SDS011;56850;51.984;5.088;2023-04-06T06:50:53;23.20;;;12.55;;
69627;SDS011;56850;51.984;5.088;2023-04-06T06:53:20;22.05;;;12.65;;
69627;SDS011;56850;51.984;5.088;2023-04-06T06:55:47;21.27;;;12.55;;
69627;SDS011;56850;51.984;5.088;2023-04-06T06:58:19;25.50;;;13.05;;
69627;SDS011;56850;51.984;5.088;2023-04-06T07:00:47;23.47;;;13.20;;
69627;SDS011;56850;51.984;5.088;2023-04-06T07:03:14;20.50;;;12.82;;
69627;SDS011;56850;51.984;5.088;2023-04-06T07:05:45;21.67;;;14.20;;
69627;SDS011;56850;51.984;5.088;2023-04-06T07:08:16;26.67;;;13.07;;
69627;SDS011;56850;51.984;5.088;2023-04-06T07:10:43;21.80;;;12.80;;
69627;SDS011;56850;51.984;5.088;2023-04-06T07:13:10;22.27;;;12.30;;
69627;SDS011;56850;51.984;5.088;2023-04-06T07:15:37;22.45;;;13.20;;
69627;SDS011;56850;51.984;5.088;2023-04-06T07:18:04;21.33;;;12.85;;
69627;SDS011;56850;51.984;5.088;2023-04-06T07:20:31;19.40;;;11.82;;
69627;SDS011;56850;51.984;5.088;2023-04-06T07:22:58;21.88;;;13.18;;
69627;SDS011;56850;51.984;5.088;2023-04-06T07:25:25;22.50;;;13.43;;
69627;SDS011;56850;51.984;5.088;2023-04-06T07:27:52;20.10;;;11.32;;
69627;SDS011;56850;51.984;5.088;2023-04-06T07:30:21;23.13;;;13.32;;
69627;SDS011;56850;51.984;5.088;2023-04-06T07:32:48;20.33;;;13.40;;
69627;SDS011;56850;51.984;5.088;2023-04-06T07:35:16;21.80;;;13.00;;
69627;SDS011;56850;51.984;5.088;2023-04-06T07:37:43;23.83;;;13.20;;
69627;SDS011;56850;51.984;5.088;2023-04-06T07:40:10;22.27;;;13.52;;
69627;SDS011;56850;51.984;5.088;2023-04-06T07:42:38;21.17;;;13.65;;
69627;SDS011;56850;51.984;5.088;2023-04-06T07:45:06;25.27;;;14.55;;
69627;SDS011;56850;51.984;5.088;2023-04-06T07:47:34;25.52;;;13.80;;
69627;SDS011;56850;51.984;5.088;2023-04-06T07:50:02;24.77;;;12.83;;
69627;SDS011;56850;51.984;5.088;2023-04-06T07:52:30;22.92;;;13.40;;
69627;SDS011;56850;51.984;5.088;2023-04-06T07:54:59;21.13;;;12.10;;
69627;SDS011;56850;51.984;5.088;2023-04-06T07:57:26;24.85;;;13.93;;
69627;SDS011;56850;51.984;5.088;2023-04-06T07:59:53;26.10;;;14.68;;
69627;SDS011;56850;51.984;5.088;2023-04-06T08:02:21;25.30;;;15.07;;
69627;SDS011;56850;51.984;5.088;2023-04-06T08:04:48;23.70;;;13.32;;
69627;SDS011;56850;51.984;5.088;2023-04-06T08:07:15;24.75;;;15.10;;
69627;SDS011;56850;51.984;5.088;2023-04-06T08:09:41;29.00;;;14.95;;
69627;SDS011;56850;51.984;5.088;2023-04-06T08:12:08;30.67;;;15.10;;
69627;SDS011;56850;51.984;5.088;2023-04-06T08:14:36;25.17;;;14.70;;
69627;SDS011;56850;51.984;5.088;2023-04-06T08:17:03;21.52;;;13.00;;
69627;SDS011;56850;51.984;5.088;2023-04-06T08:19:31;25.05;;;15.10;;
69627;SDS011;56850;51.984;5.088;2023-04-06T08:21:58;20.42;;;13.32;;
69627;SDS011;56850;51.984;5.088;2023-04-06T08:24:26;22.73;;;13.95;;
69627;SDS011;56850;51.984;5.088;2023-04-06T08:26:53;23.90;;;14.67;;
69627;SDS011;56850;51.984;5.088;2023-04-06T08:29:19;23.27;;;14.82;;
69627;SDS011;56850;51.984;5.088;2023-04-06T08:31:46;24.13;;;15.45;;
69627;SDS011;56850;51.984;5.088;2023-04-06T08:34:13;25.08;;;15.13;;
69627;SDS011;56850;51.984;5.088;2023-04-06T08:36:41;25.92;;;15.48;;
69627;SDS011;56850;51.984;5.088;2023-04-06T08:39:08;25.47;;;13.67;;
69627;SDS011;56850;51.984;5.088;2023-04-06T08:41:35;27.17;;;15.60;;
69627;SDS011;56850;51.984;5.088;2023-04-06T08:44:02;24.38;;;15.55;;
69627;SDS011;56850;51.984;5.088;2023-04-06T08:46:29;25.52;;;15.45;;
69627;SDS011;56850;51.984;5.088;2023-04-06T08:48:58;26.50;;;15.50;;
69627;SDS011;56850;51.984;5.088;2023-04-06T08:51:26;28.07;;;14.23;;
69627;SDS011;56850;51.984;5.088;2023-04-06T08:53:55;24.27;;;15.90;;
69627;SDS011;56850;51.984;5.088;2023-04-06T08:56:24;27.83;;;15.73;;
69627;SDS011;56850;51.984;5.088;2023-04-06T08:58:53;27.02;;;16.00;;
69627;SDS011;56850;51.984;5.088;2023-04-06T09:01:22;25.85;;;15.20;;
69627;SDS011;56850;51.984;5.088;2023-04-06T09:03:57;27.30;;;16.07;;
69627;SDS011;56850;51.984;5.088;2023-04-06T09:06:27;22.33;;;11.75;;
69627;SDS011;56850;51.984;5.088;2023-04-06T09:08:54;25.48;;;15.10;;
69627;SDS011;56850;51.984;5.088;2023-04-06T09:11:24;28.00;;;16.10;;
69627;SDS011;56850;51.984;5.088;2023-04-06T09:13:52;32.45;;;16.50;;
69627;SDS011;56850;51.984;5.088;2023-04-06T09:16:21;28.13;;;15.63;;
69627;SDS011;56850;51.984;5.088;2023-04-06T09:18:49;29.73;;;17.02;;
69627;SDS011;56850;51.984;5.088;2023-04-06T09:21:17;32.10;;;18.63;;
69627;SDS011;56850;51.984;5.088;2023-04-06T09:24:00;31.35;;;17.55;;
69627;SDS011;56850;51.984;5.088;2023-04-06T09:26:28;32.20;;;17.85;;
69627;SDS011;56850;51.984;5.088;2023-04-06T09:28:56;32.17;;;17.40;;
69627;SDS011;56850;51.984;5.088;2023-04-06T09:31:24;28.75;;;16.20;;
69627;SDS011;56850;51.984;5.088;2023-04-06T09:33:53;33.55;;;18.40;;
69627;SDS011;56850;51.984;5.088;2023-04-06T09:36:29;30.38;;;17.00;;
69627;SDS011;56850;51.984;5.088;2023-04-06T09:39:04;29.38;;;16.65;;
69627;SDS011;56850;51.984;5.088;2023-04-06T09:41:35;28.47;;;15.80;;
69627;SDS011;56850;51.984;5.088;2023-04-06T09:46:33;27.10;;;14.80;;
69627;SDS011;56850;51.984;5.088;2023-04-06T09:49:20;28.80;;;14.90;;
69627;SDS011;56850;51.984;5.088;2023-04-06T09:51:52;24.98;;;14.13;;
69627;SDS011;56850;51.984;5.088;2023-04-06T09:54:22;25.43;;;13.20;;
69627;SDS011;56850;51.984;5.088;2023-04-06T09:56:56;21.83;;;12.63;;
69627;SDS011;56850;51.984;5.088;2023-04-06T09:59:56;26.10;;;11.88;;
69627;SDS011;56850;51.984;5.088;2023-04-06T10:08:06;17.67;;;11.73;;
69627;SDS011;56850;51.984;5.088;2023-04-06T10:10:36;21.67;;;11.82;;
69627;SDS011;56850;51.984;5.088;2023-04-06T10:13:04;15.85;;;10.55;;
69627;SDS011;56850;51.984;5.088;2023-04-06T10:15:31;13.63;;;8.70;;
69627;SDS011;56850;51.984;5.088;2023-04-06T10:17:59;13.00;;;9.18;;
69627;SDS011;56850;51.984;5.088;2023-04-06T10:25:52;14.73;;;9.18;;
69627;SDS011;56850;51.984;5.088;2023-04-06T10:28:21;14.25;;;8.75;;
69627;SDS011;56850;51.984;5.088;2023-04-06T10:30:49;14.18;;;8.23;;
69627;SDS011;56850;51.984;5.088;2023-04-06T10:33:22;12.17;;;8.37;;
69627;SDS011;56850;51.984;5.088;2023-04-06T10:35:49;12.48;;;8.40;;
69627;SDS011;56850;51.984;5.088;2023-04-06T10:38:16;15.13;;;8.35;;
69627;SDS011;56850;51.984;5.088;2023-04-06T10:40:48;10.55;;;8.10;;
69627;SDS011;56850;51.984;5.088;2023-04-06T10:43:18;10.38;;;6.60;;
69627;SDS011;56850;51.984;5.088;2023-04-06T10:45:56;11.00;;;7.83;;
69627;SDS011;56850;51.984;5.088;2023-04-06T10:48:43;9.95;;;6.65;;
69627;SDS011;56850;51.984;5.088;2023-04-06T10:51:16;10.98;;;7.45;;
69627;SDS011;56850;51.984;5.088;2023-04-06T10:53:45;9.88;;;6.70;;
69627;SDS011;56850;51.984;5.088;2023-04-06T10:56:16;12.32;;;7.32;;
69627;SDS011;56850;51.984;5.088;2023-04-06T10:58:47;10.83;;;7.60;;
69627;SDS011;56850;51.984;5.088;2023-04-06T11:01:16;13.27;;;7.40;;
69627;SDS011;56850;51.984;5.088;2023-04-06T11:03:49;12.02;;;6.82;;
69627;SDS011;56850;51.984;5.088;2023-04-06T11:06:25;12.82;;;7.00;;
69627;SDS011;56850;51.984;5.088;2023-04-06T11:08:53;10.90;;;7.28;;
69627;SDS011;56850;51.984;5.088;2023-04-06T11:11:22;9.63;;;5.90;;
69627;SDS011;56850;51.984;5.088;2023-04-06T11:13:52;11.98;;;6.40;;
69627;SDS011;56850;51.984;5.088;2023-04-06T11:16:22;10.05;;;7.13;;
69627;SDS011;56850;51.984;5.088;2023-04-06T11:18:54;10.90;;;6.65;;
69627;SDS011;56850;51.984;5.088;2023-04-06T11:21:33;10.95;;;7.20;;
69627;SDS011;56850;51.984;5.088;2023-04-06T11:24:06;9.57;;;6.03;;
69627;SDS011;56850;51.984;5.088;2023-04-06T11:29:12;11.95;;;7.43;;
69627;SDS011;56850;51.984;5.088;2023-04-06T11:31:40;11.07;;;7.22;;
69627;SDS011;56850;51.984;5.088;2023-04-06T11:34:12;10.30;;;6.70;;
69627;SDS011;56850;51.984;5.088;2023-04-06T11:36:42;10.80;;;7.20;;
69627;SDS011;56850;51.984;5.088;2023-04-06T11:39:10;13.80;;;6.90;;
69627;SDS011;56850;51.984;5.088;2023-04-06T11:41:48;8.70;;;6.45;;
69627;SDS011;56850;51.984;5.088;2023-04-06T11:44:26;9.63;;;7.03;;
69627;SDS011;56850;51.984;5.088;2023-04-06T11:46:56;10.38;;;7.65;;
69627;SDS011;56850;51.984;5.088;2023-04-06T11:49:27;10.47;;;6.80;;
69627;SDS011;56850;51.984;5.088;2023-04-06T11:52:13;9.15;;;5.43;;
69627;SDS011;56850;51.984;5.088;2023-04-06T11:54:42;9.02;;;5.95;;
69627;SDS011;56850;51.984;5.088;2023-04-06T11:57:09;9.27;;;5.85;;
69627;SDS011;56850;51.984;5.088;2023-04-06T11:59:36;11.82;;;7.53;;
69627;SDS011;56850;51.984;5.088;2023-04-06T12:02:04;10.90;;;7.70;;
69627;SDS011;56850;51.984;5.088;2023-04-06T12:04:31;15.50;;;7.93;;
69627;SDS011;56850;51.984;5.088;2023-04-06T12:06:58;11.63;;;7.80;;
69627;SDS011;56850;51.984;5.088;2023-04-06T12:09:26;11.25;;;7.22;;
69627;SDS011;56850;51.984;5.088;2023-04-06T12:11:53;12.57;;;7.95;;
69627;SDS011;56850;51.984;5.088;2023-04-06T12:14:20;12.03;;;8.37;;
69627;SDS011;56850;51.984;5.088;2023-04-06T12:16:47;12.60;;;7.85;;
69627;SDS011;56850;51.984;5.088;2023-04-06T12:19:14;12.38;;;7.80;;
69627;SDS011;56850;51.984;5.088;2023-04-06T12:21:40;12.38;;;8.00;;
69627;SDS011;56850;51.984;5.088;2023-04-06T12:24:08;17.00;;;9.48;;
69627;SDS011;56850;51.984;5.088;2023-04-06T12:26:35;10.93;;;6.07;;
69627;SDS011;56850;51.984;5.088;2023-04-06T12:29:03;13.40;;;8.93;;
69627;SDS011;56850;51.984;5.088;2023-04-06T12:31:35;13.27;;;8.30;;
69627;SDS011;56850;51.984;5.088;2023-04-06T12:34:09;13.52;;;9.00;;
69627;SDS011;56850;51.984;5.088;2023-04-06T12:36:37;11.20;;;7.38;;
69627;SDS011;56850;51.984;5.088;2023-04-06T12:39:05;12.37;;;8.80;;
69627;SDS011;56850;51.984;5.088;2023-04-06T12:41:32;12.15;;;8.60;;
69627;SDS011;56850;51.984;5.088;2023-04-06T12:43:59;14.68;;;8.20;;
69627;SDS011;56850;51.984;5.088;2023-04-06T12:46:26;14.40;;;9.60;;
69627;SDS011;56850;51.984;5.088;2023-04-06T12:48:53;9.85;;;7.03;;
69627;SDS011;56850;51.984;5.088;2023-04-06T12:51:21;13.83;;;8.63;;
69627;SDS011;56850;51.984;5.088;2023-04-06T12:53:48;14.27;;;8.57;;
69627;SDS011;56850;51.984;5.088;2023-04-06T12:56:16;12.73;;;8.88;;
69627;SDS011;56850;51.984;5.088;2023-04-06T12:58:44;16.75;;;9.98;;
69627;SDS011;56850;51.984;5.088;2023-04-06T13:01:12;15.00;;;10.02;;
69627;SDS011;56850;51.984;5.088;2023-04-06T13:03:40;12.80;;;8.53;;
69627;SDS011;56850;51.984;5.088;2023-04-06T13:06:07;13.20;;;9.88;;
69627;SDS011;56850;51.984;5.088;2023-04-06T13:08:35;18.50;;;10.80;;
69627;SDS011;56850;51.984;5.088;2023-04-06T13:11:03;13.23;;;9.73;;
69627;SDS011;56850;51.984;5.088;2023-04-06T13:13:32;13.70;;;9.35;;
69627;SDS011;56850;51.984;5.088;2023-04-06T13:16:06;12.03;;;7.43;;
69627;SDS011;56850;51.984;5.088;2023-04-06T13:18:34;14.15;;;8.90;;
69627;SDS011;56850;51.984;5.088;2023-04-06T13:21:03;14.32;;;9.98;;
69627;SDS011;56850;51.984;5.088;2023-04-06T13:23:34;13.90;;;8.25;;
69627;SDS011;56850;51.984;5.088;2023-04-06T13:26:05;13.30;;;9.30;;
69627;SDS011;56850;51.984;5.088;2023-04-06T13:28:33;15.50;;;9.97;;
69627;SDS011;56850;51.984;5.088;2023-04-06T13:31:03;11.32;;;7.57;;
69627;SDS011;56850;51.984;5.088;2023-04-06T13:33:30;13.80;;;10.07;;
69627;SDS011;56850;51.984;5.088;2023-04-06T13:35:57;14.82;;;9.90;;
69627;SDS011;56850;51.984;5.088;2023-04-06T13:38:25;14.02;;;8.88;;
69627;SDS011;56850;51.984;5.088;2023-04-06T13:40:52;14.87;;;9.33;;
69627;SDS011;56850;51.984;5.088;2023-04-06T13:43:19;14.73;;;8.65;;
69627;SDS011;56850;51.984;5.088;2023-04-06T13:45:50;16.90;;;11.07;;
69627;SDS011;56850;51.984;5.088;2023-04-06T13:48:18;12.10;;;7.72;;
69627;SDS011;56850;51.984;5.088;2023-04-06T13:50:45;17.10;;;10.80;;
69627;SDS011;56850;51.984;5.088;2023-04-06T13:53:13;14.40;;;9.70;;
69627;SDS011;56850;51.984;5.088;2023-04-06T13:55:51;13.95;;;10.43;;
69627;SDS011;56850;51.984;5.088;2023-04-06T13:58:22;13.05;;;9.57;;
69627;SDS011;56850;51.984;5.088;2023-04-06T14:00:49;13.90;;;9.43;;
69627;SDS011;56850;51.984;5.088;2023-04-06T14:03:16;14.35;;;9.75;;
69627;SDS011;56850;51.984;5.088;2023-04-06T14:05:44;14.67;;;9.43;;
69627;SDS011;56850;51.984;5.088;2023-04-06T14:08:11;16.30;;;10.20;;
69627;SDS011;56850;51.984;5.088;2023-04-06T14:10:39;14.82;;;9.80;;
69627;SDS011;56850;51.984;5.088;2023-04-06T14:13:08;15.05;;;10.27;;
69627;SDS011;56850;51.984;5.088;2023-04-06T14:15:35;15.02;;;11.27;;
69627;SDS011;56850;51.984;5.088;2023-04-06T14:18:02;15.93;;;10.77;;
69627;SDS011;56850;51.984;5.088;2023-04-06T14:20:33;18.83;;;11.95;;
69627;SDS011;56850;51.984;5.088;2023-04-06T14:23:01;15.80;;;10.27;;
69627;SDS011;56850;51.984;5.088;2023-04-06T14:25:28;17.95;;;11.07;;
69627;SDS011;56850;51.984;5.088;2023-04-06T14:27:57;11.00;;;7.47;;
69627;SDS011;56850;51.984;5.088;2023-04-06T14:30:24;15.07;;;9.87;;
69627;SDS011;56850;51.984;5.088;2023-04-06T14:32:51;19.73;;;9.25;;
69627;SDS011;56850;51.984;5.088;2023-04-06T14:35:18;10.45;;;6.75;;
69627;SDS011;56850;51.984;5.088;2023-04-06T14:37:45;12.18;;;6.80;;
69627;SDS011;56850;51.984;5.088;2023-04-06T14:40:13;14.90;;;10.23;;
69627;SDS011;56850;51.984;5.088;2023-04-06T14:42:41;14.13;;;9.77;;
69627;SDS011;56850;51.984;5.088;2023-04-06T14:45:08;13.98;;;8.88;;
69627;SDS011;56850;51.984;5.088;2023-04-06T14:47:35;13.00;;;9.50;;
69627;SDS011;56850;51.984;5.088;2023-04-06T14:50:02;11.65;;;7.22;;
69627;SDS011;56850;51.984;5.088;2023-04-06T14:52:30;9.80;;;6.63;;
69627;SDS011;56850;51.984;5.088;2023-04-06T14:54:58;11.90;;;7.70;;
69627;SDS011;56850;51.984;5.088;2023-04-06T14:57:25;15.10;;;9.38;;